KADG

Lenawee County Airport

Adrian, Michigan, USA
METAR KADG 170744Z AUTO 09007KT 10SM OVC007 M03/M06 A3014 RMK AO2 T10331056 TSNO
Observed Flight Rules
Dec-17 @ 07:44 UTC (23 minutes ago) Instrument Flight Rules
Wind Visibility Clouds
90° at 7 knots 10 miles
  • Overcast at 700' AGL
Temperatures Readings
Current -3°C / 27°F
Dewpoint -6°C / 21°F
Humidity 80%
Altimeter 30.14" Hg
Pressure 1021 hPa
Elevation 241
METAR KADG 170744Z AUTO 09007KT 10SM OVC007 M03/M06 A3014 RMK AO2 T10331056 TSNO
Observed Flight Rules
Dec-17 @ 07:44 UTC
(23 minutes ago)
IFR
Wind Visibility
90° at 7 knots 10 miles
Clouds
  • Overcast at 700' AGL
Temperature Dewpoint
-3°C / 27°F -6°C / 21°F
Humidity Altimeter Pressure
80% 30.14" Hg 1021 hPa